Time;durP1;ratioP1;P1;durP2;ratioP2;P2;SDS_P1;SDS_P2;PMS_P1;PMS_P2;Temp;Humidity;BMP_temperature;BMP_pressure;BME280_temperature;BME280_humidity;BME280_pressure;Samples;Min_cycle;Max_cycle;Signal;HPM_P1;HPM_P2
2021/11/24 00:00:00;;;;;;;786.60;93.00;;;5.70;99.90;;;;;;4962668;28;20447;-73
2021/11/24 00:02:27;;;;;;;849.22;100.43;;;5.70;99.90;;;;;;4961508;28;20051;-73
2021/11/24 00:04:53;;;;;;;777.70;90.43;;;5.70;99.90;;;;;;4930308;28;20146;-72
2021/11/24 00:07:20;;;;;;;718.30;91.18;;;5.70;99.90;;;;;;4962108;28;20070;-72
2021/11/24 00:09:47;;;;;;;735.42;95.15;;;5.70;99.90;;;;;;4960654;28;20055;-72
2021/11/24 00:12:14;;;;;;;685.45;89.82;;;5.70;99.90;;;;;;4944032;28;20058;-72
2021/11/24 00:14:41;;;;;;;722.22;92.45;;;5.70;99.90;;;;;;4962358;28;20100;-72
2021/11/24 00:17:08;;;;;;;830.72;105.43;;;5.60;99.90;;;;;;4961078;28;20155;-72
2021/11/24 00:19:35;;;;;;;788.90;98.10;;;5.60;99.90;;;;;;4960339;28;20075;-72
2021/11/24 00:22:01;;;;;;;809.17;97.25;;;5.50;99.90;;;;;;4945440;28;20057;-72
2021/11/24 00:24:28;;;;;;;716.72;94.15;;;5.60;99.90;;;;;;4943864;28;20055;-72
2021/11/24 00:26:55;;;;;;;723.20;87.90;;;5.60;99.90;;;;;;4958358;28;20638;-73
2021/11/24 00:29:22;;;;;;;680.45;85.32;;;5.70;99.90;;;;;;4943260;28;20047;-72
2021/11/24 00:31:48;;;;;;;745.75;90.65;;;5.70;99.90;;;;;;4941992;28;20055;-72
2021/11/24 00:34:15;;;;;;;721.85;94.45;;;5.70;99.90;;;;;;4962842;28;20086;-72
2021/11/24 00:36:42;;;;;;;748.28;91.20;;;5.70;99.90;;;;;;4958703;28;20058;-72
2021/11/24 00:39:09;;;;;;;723.88;94.93;;;5.60;99.90;;;;;;4958364;28;20295;-72
2021/11/24 00:41:36;;;;;;;660.83;85.50;;;5.60;99.90;;;;;;4948334;28;20058;-72
2021/11/24 00:44:03;;;;;;;660.15;82.95;;;5.70;99.90;;;;;;4959142;28;20500;-73
2021/11/24 00:46:30;;;;;;;730.60;88.70;;;5.60;99.90;;;;;;4959573;28;20444;-72
2021/11/24 00:48:56;;;;;;;733.40;92.07;;;5.50;99.90;;;;;;4960875;28;20478;-73
2021/11/24 00:51:23;;;;;;;674.95;84.72;;;5.50;99.90;;;;;;4945851;28;20046;-73
2021/11/24 00:53:50;;;;;;;680.40;83.60;;;5.40;99.90;;;;;;4961640;28;20055;-73
2021/11/24 00:56:18;;;;;;;695.78;82.13;;;5.40;99.90;;;;;;4960649;28;20057;-73
2021/11/24 00:58:45;;;;;;;733.83;81.45;;;5.50;99.90;;;;;;4955463;28;20046;-73
2021/11/24 01:01:12;;;;;;;688.90;78.72;;;5.50;99.90;;;;;;4927257;28;20105;-73
2021/11/24 01:03:39;;;;;;;720.60;86.30;;;5.60;99.90;;;;;;4944652;28;20105;-72
2021/11/24 01:06:06;;;;;;;733.85;84.18;;;5.50;99.90;;;;;;4961530;28;20050;-73
2021/11/24 01:08:33;;;;;;;818.65;93.07;;;5.40;99.90;;;;;;4959559;28;20077;-73
2021/11/24 01:11:00;;;;;;;776.08;85.82;;;5.40;99.90;;;;;;4960072;28;20051;-73
2021/11/24 01:13:27;;;;;;;739.47;85.40;;;5.50;99.90;;;;;;4958021;28;20043;-73
2021/11/24 01:15:54;;;;;;;727.08;85.15;;;5.60;99.90;;;;;;4959343;28;20050;-73
2021/11/24 01:18:22;;;;;;;744.20;82.90;;;5.60;99.90;;;;;;4960418;28;20581;-73
2021/11/24 01:20:50;;;;;;;723.13;89.65;;;5.60;99.90;;;;;;4945028;28;20051;-73
2021/11/24 01:23:17;;;;;;;804.83;88.30;;;5.60;99.90;;;;;;4958905;28;20051;-72
2021/11/24 01:25:44;;;;;;;762.50;92.00;;;5.70;99.90;;;;;;4958891;28;20463;-72
2021/11/24 01:28:12;;;;;;;759.78;86.43;;;5.70;99.90;;;;;;4944773;28;20133;-73
2021/11/24 01:30:38;;;;;;;735.17;89.40;;;5.70;99.90;;;;;;4960022;28;20046;-73
2021/11/24 01:33:05;;;;;;;805.63;98.10;;;5.70;99.90;;;;;;4961837;28;20082;-73
2021/11/24 01:35:33;;;;;;;776.10;96.57;;;5.70;99.90;;;;;;4945106;28;20046;-73
2021/11/24 01:38:00;;;;;;;750.75;91.28;;;5.70;99.90;;;;;;4958845;28;20062;-73
2021/11/24 01:40:27;;;;;;;822.83;97.47;;;5.70;99.90;;;;;;4956863;28;20051;-73
2021/11/24 01:42:53;;;;;;;770.20;92.45;;;5.70;99.90;;;;;;4973458;28;20318;-73
2021/11/24 01:45:21;;;;;;;783.45;96.75;;;5.70;99.90;;;;;;4960440;28;20051;-74
2021/11/24 01:47:50;;;;;;;763.08;94.97;;;5.80;99.90;;;;;;4943481;28;20403;-73
2021/11/24 01:50:17;;;;;;;867.30;99.78;;;5.80;99.90;;;;;;4958159;28;20047;-73
2021/11/24 01:52:45;;;;;;;747.85;97.07;;;5.70;99.90;;;;;;4961602;28;20679;-73
2021/11/24 01:55:14;;;;;;;774.08;98.78;;;5.70;99.90;;;;;;4961060;28;20319;-73
2021/11/24 01:57:44;;;;;;;717.38;93.50;;;5.70;99.90;;;;;;4960952;28;20050;-73
2021/11/24 02:00:14;;;;;;;738.40;94.53;;;5.70;99.90;;;;;;4960399;28;20294;-74
2021/11/24 02:02:41;;;;;;;777.85;103.60;;;5.70;99.90;;;;;;4926893;28;20420;-74
2021/11/24 02:05:08;;;;;;;691.33;89.90;;;5.70;99.90;;;;;;4962400;28;20097;-73
2021/11/24 02:07:35;;;;;;;688.33;94.65;;;5.60;99.90;;;;;;4955617;28;20325;-73
2021/11/24 02:10:03;;;;;;;721.13;91.95;;;5.70;99.90;;;;;;4937590;28;20050;-74
2021/11/24 02:12:30;;;;;;;759.72;99.57;;;5.70;99.90;;;;;;4943929;28;20463;-74
2021/11/24 02:14:57;;;;;;;696.25;94.50;;;5.70;99.90;;;;;;4961047;28;20078;-74
2021/11/24 02:17:24;;;;;;;627.47;89.40;;;5.80;99.90;;;;;;4977966;28;20065;-74
2021/11/24 02:19:50;;;;;;;733.15;95.30;;;5.80;99.90;;;;;;4947571;28;20053;-74
2021/11/24 02:22:17;;;;;;;635.30;87.82;;;5.80;99.90;;;;;;4963204;28;20061;-74
2021/11/24 02:24:44;;;;;;;740.00;104.13;;;5.80;99.90;;;;;;4963490;28;20062;-74
2021/11/24 02:27:13;;;;;;;701.25;96.07;;;5.80;99.90;;;;;;4958056;28;20050;-73
2021/11/24 02:29:44;;;;;;;683.00;96.53;;;5.70;99.90;;;;;;4957191;28;20051;-74
2021/11/24 02:32:13;;;;;;;721.35;95.65;;;5.70;99.90;;;;;;4963948;28;20083;-74
2021/11/24 02:34:40;;;;;;;736.58;98.18;;;5.70;99.90;;;;;;4962716;28;20559;-73
2021/11/24 02:37:07;;;;;;;676.20;89.07;;;5.70;99.90;;;;;;4960734;28;20275;-73
2021/11/24 02:39:34;;;;;;;681.22;91.93;;;5.70;99.90;;;;;;4960019;28;20062;-74
2021/11/24 02:42:01;;;;;;;730.53;99.20;;;5.60;99.90;;;;;;4959595;28;20142;-73
2021/11/24 02:44:34;;;;;;;677.28;88.93;;;5.70;99.90;;;;;;4960311;28;20475;-74
2021/11/24 02:47:16;;;;;;;660.95;87.93;;;5.60;99.90;;;;;;4959910;28;20050;-73
2021/11/24 02:49:46;;;;;;;726.90;96.38;;;5.60;99.90;;;;;;4943657;28;20300;-74
2021/11/24 02:52:14;;;;;;;684.33;89.05;;;5.60;99.90;;;;;;4960689;28;20058;-73
2021/11/24 02:54:58;;;;;;;648.85;84.88;;;5.60;99.90;;;;;;4944015;28;20166;-73
2021/11/24 02:57:35;;;;;;;747.55;98.95;;;5.50;99.90;;;;;;4961155;28;20049;-73
2021/11/24 03:00:12;;;;;;;615.33;80.93;;;5.50;99.90;;;;;;4963542;28;20559;-74
2021/11/24 03:02:40;;;;;;;671.72;86.60;;;5.50;99.90;;;;;;4961651;28;20121;-74
2021/11/24 03:05:08;;;;;;;680.28;89.68;;;5.60;99.90;;;;;;4960474;28;20370;-74
2021/11/24 03:07:35;;;;;;;661.88;84.97;;;5.60;99.90;;;;;;4957096;28;20210;-74
2021/11/24 03:10:04;;;;;;;629.25;82.13;;;5.60;99.90;;;;;;4960211;28;20046;-73
2021/11/24 03:12:30;;;;;;;659.05;84.40;;;5.60;99.90;;;;;;4955995;28;20047;-74
2021/11/24 03:14:57;;;;;;;735.60;84.38;;;5.60;99.90;;;;;;4960960;28;20121;-74
2021/11/24 03:17:24;;;;;;;738.35;93.53;;;5.70;99.90;;;;;;4958699;28;20393;-74
2021/11/24 03:19:51;;;;;;;656.33;87.70;;;5.80;99.90;;;;;;4943675;28;20263;-74
2021/11/24 03:22:22;;;;;;;650.03;85.20;;;5.80;99.90;;;;;;4958919;28;20222;-73
2021/11/24 03:24:54;;;;;;;674.15;87.65;;;5.70;99.90;;;;;;4944926;28;20109;-73
2021/11/24 03:27:24;;;;;;;655.95;84.28;;;5.80;99.90;;;;;;4923671;28;20115;-73
2021/11/24 03:29:51;;;;;;;681.97;89.10;;;5.70;99.90;;;;;;4959014;28;20158;-72
2021/11/24 03:32:19;;;;;;;648.00;84.22;;;5.80;99.90;;;;;;4956812;28;20053;-72
2021/11/24 03:34:46;;;;;;;720.03;89.65;;;5.80;99.90;;;;;;4961808;28;20047;-73
2021/11/24 03:37:13;;;;;;;721.13;92.95;;;5.80;99.90;;;;;;4925751;28;20047;-72
2021/11/24 03:39:40;;;;;;;669.15;86.45;;;5.80;99.90;;;;;;4937192;28;20047;-73
2021/11/24 03:42:07;;;;;;;612.78;81.25;;;5.70;99.90;;;;;;4935637;28;20504;-73
2021/11/24 03:44:34;;;;;;;725.10;86.25;;;5.70;99.90;;;;;;4906860;29;20043;-72
2021/11/24 03:47:01;;;;;;;711.33;90.93;;;5.80;99.90;;;;;;4941963;28;20451;-72
2021/11/24 03:49:28;;;;;;;685.67;84.47;;;5.80;99.90;;;;;;4938999;28;20043;-72
2021/11/24 03:51:55;;;;;;;638.50;83.88;;;5.80;99.90;;;;;;4941177;28;20420;-72
2021/11/24 03:54:22;;;;;;;665.50;88.22;;;5.70;99.90;;;;;;4924590;29;20155;-72
2021/11/24 03:56:49;;;;;;;796.65;102.43;;;5.70;99.90;;;;;;4941271;28;20191;-74
2021/11/24 03:59:15;;;;;;;738.63;92.35;;;5.60;99.90;;;;;;4908713;29;20297;-73
2021/11/24 04:01:42;;;;;;;753.60;90.38;;;5.70;99.90;;;;;;4927856;28;20047;-73
2021/11/24 04:04:09;;;;;;;642.25;80.53;;;5.80;99.90;;;;;;4960305;28;20043;-73
2021/11/24 04:06:36;;;;;;;626.60;76.32;;;5.80;99.90;;;;;;4959912;28;20708;-73
2021/11/24 04:09:03;;;;;;;721.17;85.80;;;5.80;99.90;;;;;;4941783;28;20211;-73
2021/11/24 04:11:30;;;;;;;670.53;87.20;;;5.80;99.90;;;;;;4958826;28;20042;-73
2021/11/24 04:13:57;;;;;;;722.83;92.22;;;5.80;99.90;;;;;;4973289;28;20046;-73
2021/11/24 04:16:24;;;;;;;771.75;96.70;;;5.80;99.90;;;;;;4960515;28;20124;-73
2021/11/24 04:18:51;;;;;;;630.83;83.25;;;5.90;99.90;;;;;;4961779;28;20487;-73
2021/11/24 04:21:18;;;;;;;720.67;95.00;;;5.90;99.90;;;;;;4978855;28;20518;-73
2021/11/24 04:23:45;;;;;;;679.42;90.57;;;5.80;99.90;;;;;;4925312;28;20047;-73
2021/11/24 04:26:12;;;;;;;690.00;85.18;;;5.80;99.90;;;;;;4931622;28;20293;-73
2021/11/24 04:28:39;;;;;;;697.80;92.63;;;5.90;99.90;;;;;;4957482;28;20054;-73
2021/11/24 04:31:08;;;;;;;722.75;95.80;;;5.90;99.90;;;;;;4958612;28;20038;-73
2021/11/24 04:33:37;;;;;;;736.10;90.60;;;5.90;99.90;;;;;;4973141;28;20039;-73
2021/11/24 04:36:05;;;;;;;723.15;91.95;;;5.90;99.90;;;;;;4927358;28;20056;-73
2021/11/24 04:38:32;;;;;;;628.83;91.63;;;5.90;99.90;;;;;;4959254;28;20066;-73
2021/11/24 04:40:59;;;;;;;755.55;100.53;;;5.80;99.90;;;;;;4955349;28;20519;-74
2021/11/24 04:43:30;;;;;;;790.95;105.05;;;5.80;99.90;;;;;;4941258;28;20042;-72
2021/11/24 04:45:59;;;;;;;710.20;92.70;;;5.80;99.90;;;;;;4942809;28;20561;-71
2021/11/24 04:48:27;;;;;;;730.22;97.18;;;5.80;99.90;;;;;;4955733;28;20686;-72
2021/11/24 04:50:54;;;;;;;675.45;86.72;;;5.80;99.90;;;;;;4956200;28;20050;-72
2021/11/24 04:53:21;;;;;;;597.00;78.32;;;5.90;99.90;;;;;;4958957;28;20058;-72
2021/11/24 04:55:48;;;;;;;725.78;93.60;;;6.00;99.90;;;;;;4943419;28;20058;-74
2021/11/24 04:58:15;;;;;;;671.72;90.85;;;5.90;99.90;;;;;;4958015;28;20138;-72
2021/11/24 05:00:42;;;;;;;737.05;93.78;;;5.80;99.90;;;;;;4958535;28;20314;-72
2021/11/24 05:03:09;;;;;;;739.40;91.53;;;5.80;99.90;;;;;;4944061;28;20078;-72
2021/11/24 05:05:35;;;;;;;659.95;83.63;;;5.80;99.90;;;;;;4960838;28;20074;-72
2021/11/24 05:08:03;;;;;;;703.47;86.40;;;5.80;99.90;;;;;;4942985;28;20511;-72
2021/11/24 05:10:30;;;;;;;676.45;92.18;;;5.80;99.90;;;;;;4959295;28;20050;-74
2021/11/24 05:12:57;;;;;;;650.40;86.93;;;5.90;99.90;;;;;;4958901;28;20046;-72
2021/11/24 05:15:30;;;;;;;679.38;89.13;;;5.80;99.90;;;;;;4958424;28;20211;-72
2021/11/24 05:18:04;;;;;;;725.00;92.35;;;5.80;99.90;;;;;;4961030;28;20065;-74
2021/11/24 05:20:33;;;;;;;746.28;98.13;;;5.70;99.90;;;;;;4960550;28;20050;-74
2021/11/24 05:23:05;;;;;;;675.75;88.45;;;5.60;99.90;;;;;;4975829;28;20047;-73
2021/11/24 05:25:33;;;;;;;655.97;89.82;;;5.70;99.90;;;;;;4958864;28;20412;-72
2021/11/24 05:28:00;;;;;;;738.40;97.28;;;5.60;99.90;;;;;;4941403;28;20051;-73
2021/11/24 05:30:28;;;;;;;705.50;92.78;;;5.60;99.90;;;;;;4942783;28;20051;-72
2021/11/24 05:32:55;;;;;;;650.03;87.20;;;5.70;99.90;;;;;;4961120;28;20153;-74
2021/11/24 05:35:24;;;;;;;578.25;79.53;;;5.70;99.90;;;;;;4944542;28;20142;-72
2021/11/24 05:37:52;;;;;;;615.63;84.63;;;5.60;99.90;;;;;;4942054;28;20602;-71
2021/11/24 05:40:23;;;;;;;673.25;88.03;;;5.60;99.90;;;;;;4942383;28;20062;-72
2021/11/24 05:42:50;;;;;;;641.58;92.03;;;5.60;99.90;;;;;;4941830;28;20563;-72
2021/11/24 05:48:11;;;;;;;656.05;83.60;;;5.70;99.90;;;;;;4960522;28;20117;-72
2021/11/24 05:50:43;;;;;;;575.75;81.32;;;5.80;99.90;;;;;;4978654;28;20094;-74
2021/11/24 05:53:11;;;;;;;576.53;84.10;;;5.90;99.90;;;;;;4964416;28;20483;-73
2021/11/24 05:55:38;;;;;;;647.75;85.57;;;5.80;99.90;;;;;;4963901;28;20031;-73
2021/11/24 05:58:05;;;;;;;485.25;69.95;;;5.70;99.90;;;;;;4963504;28;20058;-72
2021/11/24 06:00:33;;;;;;;544.60;76.47;;;5.70;99.90;;;;;;4968041;28;20047;-72
2021/11/24 06:03:00;;;;;;;509.23;72.90;;;5.80;99.90;;;;;;4965484;28;20307;-72
2021/11/24 06:05:27;;;;;;;514.42;72.25;;;5.90;99.90;;;;;;4979579;28;20669;-72
2021/11/24 06:07:56;;;;;;;416.08;66.55;;;5.90;99.90;;;;;;4965607;28;20439;-72
2021/11/24 06:10:23;;;;;;;353.17;62.20;;;5.90;99.90;;;;;;4962741;28;20042;-72
2021/11/24 06:12:49;;;;;;;493.77;69.80;;;5.80;99.90;;;;;;4961755;28;20051;-72
2021/11/24 06:15:17;;;;;;;316.05;56.55;;;5.70;99.90;;;;;;4947203;28;20142;-71
2021/11/24 06:17:46;;;;;;;298.20;54.03;;;5.70;99.90;;;;;;4947563;28;20069;-74
2021/11/24 06:20:15;;;;;;;240.10;50.88;;;5.60;99.90;;;;;;4964289;28;20059;-74
2021/11/24 06:22:43;;;;;;;244.75;48.97;;;5.70;99.90;;;;;;4963295;28;20133;-71
2021/11/24 06:25:11;;;;;;;369.33;59.80;;;5.70;99.90;;;;;;4961451;28;20054;-71
2021/11/24 06:27:41;;;;;;;482.05;71.05;;;5.60;99.90;;;;;;4961077;28;20061;-72
2021/11/24 06:30:10;;;;;;;416.23;62.45;;;5.60;99.90;;;;;;4963079;28;20051;-71
2021/11/24 06:32:37;;;;;;;317.73;55.50;;;5.70;99.90;;;;;;4959420;28;20047;-71
2021/11/24 06:35:05;;;;;;;289.05;53.03;;;5.70;99.90;;;;;;4962986;28;20034;-71
2021/11/24 06:37:32;;;;;;;357.08;58.88;;;5.80;99.90;;;;;;4962407;28;20526;-72
2021/11/24 06:40:00;;;;;;;476.35;68.80;;;5.80;99.90;;;;;;4962168;28;20051;-72
2021/11/24 06:42:27;;;;;;;334.45;60.38;;;5.70;99.90;;;;;;4957971;28;20050;-71
2021/11/24 06:44:54;;;;;;;284.77;54.00;;;5.80;99.90;;;;;;4961510;28;20059;-71
2021/11/24 06:47:21;;;;;;;289.02;54.33;;;5.70;99.90;;;;;;4961991;28;20047;-71
2021/11/24 06:49:47;;;;;;;277.67;50.55;;;5.60;99.90;;;;;;4961726;28;20051;-72
2021/11/24 06:52:15;;;;;;;289.52;53.25;;;5.60;99.90;;;;;;4963745;28;20466;-72
2021/11/24 06:54:41;;;;;;;300.40;55.83;;;5.70;99.90;;;;;;4980388;28;20043;-72
2021/11/24 06:57:08;;;;;;;293.45;52.38;;;5.70;99.90;;;;;;4963655;28;20213;-71
2021/11/24 06:59:35;;;;;;;374.20;57.45;;;5.70;99.90;;;;;;4960143;28;20081;-71
2021/11/24 07:02:02;;;;;;;287.15;53.20;;;5.40;99.90;;;;;;4963164;28;20651;-72
2021/11/24 07:04:29;;;;;;;217.55;44.60;;;5.30;99.90;;;;;;4964669;28;20105;-74
2021/11/24 07:06:56;;;;;;;343.55;58.42;;;5.30;99.90;;;;;;4944578;28;20680;-71
2021/11/24 07:09:24;;;;;;;396.15;61.10;;;5.40;99.90;;;;;;4960785;28;20055;-72
2021/11/24 07:11:51;;;;;;;388.45;62.10;;;5.50;99.90;;;;;;4943938;28;20436;-71
2021/11/24 07:14:18;;;;;;;397.92;64.38;;;5.50;99.90;;;;;;4970184;28;20035;-71
2021/11/24 07:16:45;;;;;;;437.35;67.22;;;5.50;99.90;;;;;;4963291;28;20157;-72
2021/11/24 07:19:12;;;;;;;274.85;50.70;;;5.50;99.90;;;;;;4963368;28;20061;-71
2021/11/24 07:21:40;;;;;;;250.93;48.70;;;5.30;99.90;;;;;;4947490;28;20059;-71
2021/11/24 07:24:08;;;;;;;246.02;51.55;;;5.10;99.90;;;;;;4947738;28;20430;-72
2021/11/24 07:26:35;;;;;;;247.75;53.42;;;5.10;99.90;;;;;;4963467;28;20058;-72
2021/11/24 07:29:03;;;;;;;200.32;45.83;;;5.20;99.90;;;;;;4961504;28;20046;-72
2021/11/24 07:31:29;;;;;;;214.93;48.00;;;5.30;99.90;;;;;;4961347;28;20523;-71
2021/11/24 07:33:57;;;;;;;158.10;42.25;;;5.40;99.90;;;;;;4959561;28;20051;-71
2021/11/24 07:36:23;;;;;;;137.52;38.83;;;5.40;99.90;;;;;;4960306;28;20435;-71
2021/11/24 07:38:50;;;;;;;143.27;38.30;;;5.50;99.90;;;;;;4961312;28;20062;-71
2021/11/24 07:41:17;;;;;;;145.73;39.25;;;5.50;99.90;;;;;;4958295;28;20226;-71
2021/11/24 07:43:44;;;;;;;157.30;41.05;;;5.50;99.90;;;;;;4962187;28;20109;-71
2021/11/24 07:46:11;;;;;;;154.05;38.97;;;5.60;99.90;;;;;;4977154;28;20051;-74
2021/11/24 07:48:38;;;;;;;141.85;37.42;;;5.50;99.90;;;;;;4958201;28;20065;-71
2021/11/24 07:51:05;;;;;;;122.00;34.58;;;5.50;99.90;;;;;;4976762;28;20054;-71
2021/11/24 07:53:31;;;;;;;126.55;37.53;;;5.60;99.90;;;;;;4962256;28;20179;-71
2021/11/24 07:55:58;;;;;;;130.52;34.83;;;5.60;99.90;;;;;;4961520;28;20047;-71
2021/11/24 07:58:25;;;;;;;126.78;39.65;;;5.60;99.90;;;;;;4959839;28;20078;-71
2021/11/24 08:00:52;;;;;;;129.80;36.15;;;5.70;99.90;;;;;;4958512;28;20431;-71
2021/11/24 08:03:19;;;;;;;112.20;33.85;;;5.70;99.90;;;;;;4960962;28;20077;-73
2021/11/24 08:05:46;;;;;;;102.07;32.22;;;5.70;99.90;;;;;;4959648;28;20062;-71
2021/11/24 08:08:12;;;;;;;119.15;36.08;;;5.80;99.90;;;;;;4960071;28;20144;-71
2021/11/24 08:10:39;;;;;;;129.27;36.65;;;5.80;99.90;;;;;;4959519;28;20073;-71
2021/11/24 08:13:09;;;;;;;262.70;51.83;;;5.90;99.90;;;;;;4959024;28;20093;-71
2021/11/24 08:15:39;;;;;;;119.20;35.60;;;5.80;99.90;;;;;;4952915;28;20071;-71
2021/11/24 08:18:06;;;;;;;116.82;35.72;;;5.80;99.90;;;;;;4962186;28;20042;-71
2021/11/24 08:20:33;;;;;;;129.25;36.95;;;5.80;99.90;;;;;;4959776;28;20046;-71
2021/11/24 08:23:00;;;;;;;134.55;38.45;;;5.80;99.90;;;;;;4960893;28;20047;-72
2021/11/24 08:25:27;;;;;;;127.75;37.75;;;5.90;99.90;;;;;;4945832;28;20054;-71
2021/11/24 08:27:54;;;;;;;111.38;35.83;;;5.60;99.90;;;;;;4961074;28;20424;-71
2021/11/24 08:30:22;;;;;;;137.55;38.00;;;5.60;99.90;;;;;;4959972;28;20054;-71
2021/11/24 08:32:50;;;;;;;148.65;39.08;;;5.60;99.90;;;;;;4960755;28;20452;-71
2021/11/24 08:35:18;;;;;;;145.93;38.40;;;5.70;99.90;;;;;;4960420;28;20500;-71
2021/11/24 08:37:45;;;;;;;141.65;37.15;;;5.70;99.90;;;;;;4975407;28;20046;-72
2021/11/24 08:40:12;;;;;;;148.60;45.63;;;5.80;99.90;;;;;;4960321;28;20050;-72
2021/11/24 08:42:40;;;;;;;123.28;34.75;;;5.80;99.90;;;;;;4957723;28;20047;-71
2021/11/24 08:45:10;;;;;;;109.40;32.60;;;5.80;99.90;;;;;;4962021;28;20559;-71
2021/11/24 08:47:38;;;;;;;87.93;28.88;;;5.80;99.90;;;;;;4962212;28;20070;-71
2021/11/24 08:50:07;;;;;;;86.78;28.80;;;5.80;99.90;;;;;;4976355;28;20471;-71
2021/11/24 08:52:34;;;;;;;78.13;28.40;;;5.80;99.90;;;;;;4959610;28;20363;-73
2021/11/24 08:55:03;;;;;;;72.03;26.73;;;5.90;99.90;;;;;;4963103;28;20051;-71
2021/11/24 08:57:30;;;;;;;61.53;25.65;;;5.90;99.90;;;;;;4943683;28;20112;-71
2021/11/24 08:59:57;;;;;;;69.15;24.10;;;5.90;99.90;;;;;;4943797;28;20077;-72
2021/11/24 09:02:28;;;;;;;78.57;27.15;;;5.90;99.90;;;;;;4959642;28;20054;-71
2021/11/24 09:04:55;;;;;;;72.00;28.88;;;5.90;99.90;;;;;;4960187;28;20129;-71
2021/11/24 09:07:22;;;;;;;74.10;26.48;;;5.90;99.90;;;;;;4959247;28;20051;-71
2021/11/24 09:09:49;;;;;;;65.40;24.63;;;5.80;99.90;;;;;;4962353;28;20043;-71
2021/11/24 09:12:16;;;;;;;61.45;23.13;;;5.80;99.90;;;;;;4959039;28;20106;-71
2021/11/24 09:14:43;;;;;;;60.78;23.90;;;5.90;99.90;;;;;;4944787;28;20039;-72
2021/11/24 09:17:09;;;;;;;66.72;27.85;;;5.90;99.90;;;;;;4959941;28;20051;-72
2021/11/24 09:19:38;;;;;;;76.93;29.70;;;6.10;99.90;;;;;;4943315;28;20090;-72
2021/11/24 09:22:21;;;;;;;62.33;24.80;;;6.20;99.90;;;;;;4958884;28;20058;-72
2021/11/24 09:24:57;;;;;;;67.38;24.67;;;6.20;99.90;;;;;;4959556;28;20443;-72
2021/11/24 09:27:44;;;;;;;62.33;23.17;;;6.20;99.90;;;;;;4960079;28;20077;-72
2021/11/24 09:30:12;;;;;;;63.97;23.15;;;6.20;99.90;;;;;;4941865;28;20054;-72
2021/11/24 09:32:38;;;;;;;67.50;24.50;;;6.20;99.90;;;;;;4959759;28;20057;-72
2021/11/24 09:35:05;;;;;;;70.75;25.40;;;6.20;99.90;;;;;;4944517;28;20135;-72
2021/11/24 09:37:32;;;;;;;69.57;25.33;;;6.20;99.90;;;;;;4957802;28;20081;-74
2021/11/24 09:40:00;;;;;;;70.40;27.20;;;6.20;99.90;;;;;;4959299;28;20055;-71
2021/11/24 09:42:29;;;;;;;71.15;27.10;;;6.10;99.90;;;;;;4956251;28;20667;-71
2021/11/24 09:44:58;;;;;;;61.20;24.42;;;6.10;99.90;;;;;;4960651;28;20194;-71
2021/11/24 09:47:36;;;;;;;49.97;20.90;;;6.10;99.90;;;;;;4958588;28;20066;-72
2021/11/24 09:50:06;;;;;;;47.78;20.10;;;6.30;99.90;;;;;;4945150;28;20055;-72
2021/11/24 09:52:35;;;;;;;44.47;20.75;;;6.30;99.90;;;;;;4942375;28;20058;-71
2021/11/24 09:55:05;;;;;;;43.30;22.70;;;6.30;99.90;;;;;;4958289;28;20098;-72
2021/11/24 09:57:32;;;;;;;50.17;23.05;;;6.40;99.90;;;;;;4959696;28;20055;-72
2021/11/24 09:59:59;;;;;;;42.78;19.75;;;6.50;99.90;;;;;;4959338;28;20054;-72
2021/11/24 10:02:26;;;;;;;33.97;17.85;;;6.60;99.90;;;;;;4959494;28;20055;-71
2021/11/24 10:04:53;;;;;;;37.03;17.08;;;6.60;99.90;;;;;;4958856;28;20051;-72
2021/11/24 10:07:20;;;;;;;32.13;16.05;;;6.60;99.90;;;;;;4957926;28;20088;-72
2021/11/24 10:09:48;;;;;;;38.42;19.25;;;6.70;99.90;;;;;;4958948;28;20073;-72
2021/11/24 10:12:16;;;;;;;32.38;15.98;;;6.80;99.90;;;;;;4940232;28;20151;-72
2021/11/24 10:14:44;;;;;;;33.20;16.95;;;6.80;99.90;;;;;;4958675;28;20157;-72
2021/11/24 10:17:20;;;;;;;32.38;18.00;;;6.70;99.90;;;;;;4959213;28;20462;-73
2021/11/24 10:20:06;;;;;;;30.25;16.52;;;6.90;99.90;;;;;;4959413;28;20074;-72
2021/11/24 10:22:38;;;;;;;43.50;20.77;;;6.70;99.90;;;;;;4939955;29;20516;-73
2021/11/24 10:25:12;;;;;;;28.80;15.23;;;6.60;99.90;;;;;;4939879;29;20059;-71
2021/11/24 10:27:43;;;;;;;19.48;11.73;;;6.60;99.90;;;;;;4942240;28;20059;-72
2021/11/24 10:30:30;;;;;;;20.08;11.40;;;6.60;99.90;;;;;;4926365;28;20113;-72
2021/11/24 10:33:17;;;;;;;25.35;12.65;;;6.60;99.90;;;;;;4925905;28;20051;-73
2021/11/24 10:35:44;;;;;;;25.48;13.90;;;6.70;99.90;;;;;;4950449;28;20046;-72
2021/11/24 10:38:18;;;;;;;23.50;13.85;;;6.80;99.90;;;;;;4945413;28;20078;-72
2021/11/24 10:40:47;;;;;;;24.65;13.65;;;6.70;99.90;;;;;;4991172;28;20062;-71
2021/11/24 10:43:16;;;;;;;34.65;16.65;;;6.70;99.90;;;;;;4958533;28;20514;-72
2021/11/24 10:45:57;;;;;;;36.17;17.05;;;6.60;99.90;;;;;;4960188;28;20038;-72
2021/11/24 10:48:29;;;;;;;32.67;17.30;;;6.60;99.90;;;;;;4946110;28;20054;-71
2021/11/24 10:50:56;;;;;;;27.13;15.00;;;6.50;99.90;;;;;;4977656;28;20074;-70
2021/11/24 10:53:25;;;;;;;31.23;15.95;;;6.30;99.90;;;;;;4962395;28;20086;-72
2021/11/24 10:55:53;;;;;;;34.10;15.77;;;6.40;99.90;;;;;;4964902;28;20552;-71
2021/11/24 10:58:26;;;;;;;37.50;16.83;;;6.30;99.90;;;;;;4960862;28;20411;-72
2021/11/24 11:00:55;;;;;;;32.70;15.82;;;6.30;99.90;;;;;;4938637;28;20423;-72
2021/11/24 11:03:38;;;;;;;34.40;15.75;;;6.40;99.90;;;;;;4955972;28;20329;-71
2021/11/24 11:06:05;;;;;;;31.73;15.55;;;6.30;99.90;;;;;;4960810;28;20058;-71
2021/11/24 11:08:32;;;;;;;33.17;16.48;;;6.30;99.90;;;;;;4976274;28;20121;-72
2021/11/24 11:11:29;;;;;;;29.42;14.77;;;6.30;99.90;;;;;;4974353;28;20066;-72
2021/11/24 11:14:27;;;;;;;29.33;15.38;;;6.40;99.90;;;;;;4959730;28;20058;-72
2021/11/24 11:16:55;;;;;;;33.13;16.08;;;6.40;99.90;;;;;;4953317;28;20369;-72
2021/11/24 11:19:47;;;;;;;30.73;15.07;;;6.30;99.90;;;;;;4960498;28;20053;-71
2021/11/24 11:22:17;;;;;;;40.58;19.00;;;6.30;99.90;;;;;;4960046;28;20054;-71
2021/11/24 11:24:44;;;;;;;37.63;16.95;;;6.40;99.90;;;;;;4961789;28;20050;-71
2021/11/24 11:27:11;;;;;;;37.72;18.42;;;6.40;99.90;;;;;;4960164;28;20050;-71
2021/11/24 11:29:40;;;;;;;39.83;21.75;;;6.40;99.90;;;;;;4960217;28;20053;-71
2021/11/24 11:32:08;;;;;;;39.92;19.63;;;6.50;99.90;;;;;;4959379;28;20062;-71
2021/11/24 11:34:39;;;;;;;37.63;19.63;;;6.60;99.90;;;;;;4961999;28;20061;-71
2021/11/24 11:37:07;;;;;;;40.28;18.70;;;6.60;99.90;;;;;;4960018;28;20134;-72
2021/11/24 11:39:35;;;;;;;41.60;19.42;;;6.60;99.90;;;;;;4958987;28;20046;-72
2021/11/24 11:42:12;;;;;;;38.25;19.40;;;6.70;99.90;;;;;;4956480;28;20176;-72
2021/11/24 11:45:08;;;;;;;41.00;19.67;;;6.70;99.90;;;;;;4961882;28;20117;-71
2021/11/24 11:47:44;;;;;;;40.22;19.65;;;6.60;99.90;;;;;;4944528;28;20053;-72
2021/11/24 11:50:13;;;;;;;49.67;22.17;;;6.60;99.90;;;;;;4958648;28;20365;-72
2021/11/24 11:52:40;;;;;;;40.90;18.38;;;6.60;99.90;;;;;;4976549;28;20424;-72
2021/11/24 11:55:21;;;;;;;40.92;18.30;;;6.50;99.90;;;;;;4961208;28;20219;-72
2021/11/24 11:57:48;;;;;;;42.53;19.95;;;6.50;99.90;;;;;;4959840;28;20047;-71
2021/11/24 12:00:15;;;;;;;42.70;19.48;;;6.50;99.90;;;;;;4957992;28;20046;-71
2021/11/24 12:02:50;;;;;;;46.45;23.33;;;6.50;99.90;;;;;;4960483;28;20062;-72
2021/11/24 12:05:19;;;;;;;44.15;19.20;;;6.50;99.90;;;;;;4943233;28;20579;-71
2021/11/24 12:08:06;;;;;;;43.10;19.42;;;6.60;99.90;;;;;;4961664;28;20058;-70
2021/11/24 12:10:56;;;;;;;42.80;19.65;;;6.70;99.90;;;;;;4959277;28;20298;-71
2021/11/24 12:13:33;;;;;;;42.38;17.92;;;6.80;99.90;;;;;;4959023;28;20069;-71
2021/11/24 12:16:40;;;;;;;42.28;18.77;;;6.70;99.90;;;;;;4960099;28;20077;-71
2021/11/24 12:19:18;;;;;;;43.80;20.25;;;6.80;99.90;;;;;;4957832;28;20142;-70
2021/11/24 12:21:52;;;;;;;50.03;22.70;;;6.80;99.90;;;;;;4961315;28;20514;-71
2021/11/24 12:24:36;;;;;;;37.97;17.65;;;6.80;99.90;;;;;;4944163;28;20190;-70
2021/11/24 12:27:03;;;;;;;36.22;16.90;;;6.70;99.90;;;;;;4960031;28;20061;-71
2021/11/24 12:29:50;;;;;;;40.28;17.92;;;6.60;99.90;;;;;;4958251;28;20057;-71
2021/11/24 12:32:17;;;;;;;29.00;15.07;;;6.60;99.90;;;;;;4957238;28;20053;-71
2021/11/24 12:34:52;;;;;;;32.63;16.35;;;6.50;99.90;;;;;;4960164;28;20070;-71
2021/11/24 12:37:20;;;;;;;26.40;14.32;;;6.50;99.90;;;;;;4960702;28;20066;-70
2021/11/24 12:39:48;;;;;;;27.60;13.43;;;6.50;99.90;;;;;;4941316;28;20499;-70
2021/11/24 12:42:24;;;;;;;26.58;13.38;;;6.50;99.90;;;;;;4957310;28;20042;-70